Sunday, September 23, 2018, 12:55 AM EDT
Back to Local

KBFD, Bradford Regional Airport

Location: Cyclone, PA, United States Lat: 41.8
Local Time: 12:55 AM EDT ( 4:55 GMT) Lon: -78.633
Time Zone: US/Eastern Elev: 2142 ft

Show me the last for .
Show Decoded

2018-09-22 23:53 METAR KBFD 230353Z AUTO 00000KT 10SM CLR 08/07 A3023 RMK AO2 SLP240 T00780072 =
2018-09-22 22:53 METAR KBFD 230253Z AUTO 00000KT 10SM CLR 09/08 A3024 RMK AO2 SLP242 T00890083
                 50003 =
2018-09-22 21:53 METAR KBFD 230153Z AUTO 00000KT 10SM CLR 09/08 A3024 RMK AO2 SLP244 T00940083 =
2018-09-22 20:53 METAR KBFD 230053Z AUTO 00000KT 10SM CLR 10/09 A3024 RMK AO2 SLP242 T01000089 =
2018-09-22 19:53 METAR KBFD 222353Z AUTO 06004KT 10SM CLR 11/08 A3023 RMK AO2 SLP238 T01060083
                 10144 20106 58003 =
2018-09-22 19:11 METAR KBFD 222311Z AUTO 06003KT 10SM SCT025 12/08 A3024 RMK AO2 T01170083 =
2018-09-22 18:53 METAR KBFD 222253Z AUTO 09003KT 10SM OVC027 13/09 A3024 RMK AO2 SLP242 T01280089
                 =
2018-09-22 18:49 METAR KBFD 222249Z AUTO 11003KT 10SM OVC027 13/08 A3025 RMK AO2 =
2018-09-22 18:29 METAR KBFD 222229Z AUTO 00000KT 10SM BKN030 13/08 A3025 RMK AO2 T01330083 =
2018-09-22 17:53 METAR KBFD 222153Z AUTO 00000KT 10SM OVC027 14/08 A3024 RMK AO2 SLP239 T01390078
                 =
2018-09-22 17:14 METAR KBFD 222114Z AUTO VRB03KT 10SM BKN028 14/08 A3023 RMK AO2 T01390078 =
2018-09-22 16:53 METAR KBFD 222053Z AUTO 35005KT 10SM SCT027 14/08 A3023 RMK AO2 SLP235 T01390078
                 58002 =
2018-09-22 16:49 METAR KBFD 222049Z AUTO 00000KT 10SM SCT027 14/07 A3024 RMK AO2 =
2018-09-22 15:53 METAR KBFD 221953Z AUTO 05005KT 10SM OVC029 14/08 A3024 RMK AO2 SLP236 T01440083
                 =
2018-09-22 15:06 METAR KBFD 221906Z AUTO VRB03KT 10SM BKN027 14/07 A3024 RMK AO2 T01390072 =
2018-09-22 14:53 METAR KBFD 221853Z AUTO 10SM FEW027 14/07 A3024 RMK AO2 SLP236 T01390072 =
2018-09-22 14:38 METAR KBFD 221838Z AUTO VRB03KT 10SM SCT025 14/07 A3024 RMK AO2 T01390072 =
2018-09-22 13:53 METAR KBFD 221753Z AUTO 09004KT 10SM OVC025 13/07 A3026 RMK AO2 SLP242 T01330072
                 10133 20100 58002 =
2018-09-22 12:53 METAR KBFD 221653Z AUTO VRB03KT 10SM OVC024 13/07 A3027 RMK AO2 SLP245 T01280072
                 =
2018-09-22 11:53 METAR KBFD 221553Z AUTO 04004KT 10SM OVC021 12/07 A3027 RMK AO2 SLP246 T01220072
                 =
2018-09-22 10:53 METAR KBFD 221453Z AUTO 02005KT 10SM OVC020 12/07 A3026 RMK AO2 SLP242 T01170072
                 53014 =
2018-09-22 09:53 METAR KBFD 221353Z AUTO 02008KT 10SM OVC020 11/07 A3024 RMK AO2 SLP235 T01060067
                 =
2018-09-22 08:53 METAR KBFD 221253Z AUTO 35010KT 10SM OVC019 11/07 A3023 RMK AO2 SLP231 T01060067
                 =
2018-09-22 07:53 METAR KBFD 221153Z AUTO 35006KT 10SM BKN018 10/08 A3022 RMK AO2 SLP228 70040
                 T01000078 10144 20100 53021 =
2018-09-22 07:29 METAR KBFD 221129Z AUTO 36009KT 10SM FEW017 10/08 A3020 RMK AO2 T01000078 =
2018-09-22 06:53 METAR KBFD 221053Z AUTO 34008KT 10SM OVC016 11/08 A3019 RMK AO2 SLP213 T01060083
                 =
2018-09-22 06:42 METAR KBFD 221042Z AUTO 33008KT 10SM BKN014 11/08 A3019 RMK AO2 T01060083 =
2018-09-22 06:31 METAR KBFD 221031Z AUTO 35009G15KT 10SM BKN015 11/08 A3018 RMK AO2 T01060083 =
2018-09-22 05:53 METAR KBFD 220953Z AUTO 33010KT 10SM CLR 11/08 A3016 RMK AO2 SLP204 T01060078 =
2018-09-22 04:53 METAR KBFD 220853Z AUTO 32012G20KT 10SM FEW022 12/09 A3015 RMK AO2 SLP197
                 T01220089 53017 =
2018-09-22 04:31 METAR KBFD 220831Z AUTO 32013KT 10SM FEW018 SCT029 SCT037 13/09 A3014 RMK AO2
                 T01280094 =
2018-09-22 04:08 METAR KBFD 220808Z AUTO 32010KT 10SM SCT018 BKN029 BKN038 13/11 A3013 RMK AO2
                 T01330111 =
2018-09-22 03:53 METAR KBFD 220753Z AUTO 31010KT 10SM FEW019 SCT040 13/11 A3013 RMK AO2 SLP188
                 T01330111 =
2018-09-22 02:53 METAR KBFD 220653Z AUTO 31009KT 10SM CLR 14/11 A3011 RMK AO2 SLP182 T01390111 =
2018-09-22 01:53 METAR KBFD 220553Z AUTO 31008KT 10SM FEW024 SCT031 14/12 A3010 RMK AO2 SLP177
                 60005 T01440117 10217 20144 53027 =

Support USWX by starting your Amazon purchase here.